Time;durP1;ratioP1;P1;durP2;ratioP2;P2;SDS_P1;SDS_P2;PMS_P1;PMS_P2;Temp;Humidity;BMP_temperature;BMP_pressure;BME280_temperature;BME280_humidity;BME280_pressure;Samples;Min_cycle;Max_cycle;Signal;HPM_P1;HPM_P2
2022/04/17 00:00:50;;;;;;;9.27;6.13;;;6.10;18.10;;;;;;4951241;28;20206;-63
2022/04/17 00:03:17;;;;;;;8.97;6.00;;;6.00;47.10;;;;;;4950401;28;20314;-64
2022/04/17 00:05:44;;;;;;;7.93;5.70;;;5.90;69.60;;;;;;4961772;28;20226;-63
2022/04/17 00:08:11;;;;;;;9.80;6.07;;;5.90;96.90;;;;;;4960057;28;20202;-64
2022/04/17 00:10:38;;;;;;;9.07;6.03;;;5.80;99.90;;;;;;4949506;28;20230;-63
2022/04/17 00:13:05;;;;;;;7.73;6.07;;;5.90;99.90;;;;;;4959394;28;20225;-63
2022/04/17 00:15:32;;;;;;;9.83;5.83;;;5.90;99.90;;;;;;4961364;28;20206;-64
2022/04/17 00:17:59;;;;;;;10.50;6.10;;;5.80;99.90;;;;;;4959109;28;20297;-63
2022/04/17 00:20:26;;;;;;;10.60;6.10;;;5.80;99.90;;;;;;4961431;28;20727;-64
2022/04/17 00:22:54;;;;;;;10.53;5.97;;;5.70;99.90;;;;;;4942194;28;20253;-63
2022/04/17 00:25:21;;;;;;;8.40;6.30;;;5.70;99.90;;;;;;4940145;28;20659;-63
2022/04/17 00:27:48;;;;;;;10.10;6.27;;;5.60;99.90;;;;;;4942872;28;20206;-64
2022/04/17 00:30:15;;;;;;;8.97;5.30;;;5.60;99.90;;;;;;4932044;29;20199;-63
2022/04/17 00:32:42;;;;;;;9.33;5.90;;;5.60;99.90;;;;;;4923976;29;20235;-63
2022/04/17 00:35:10;;;;;;;9.63;5.93;;;5.60;99.90;;;;;;4929864;29;20516;-63
2022/04/17 00:37:37;;;;;;;10.83;6.23;;;5.50;99.90;;;;;;4907022;29;20241;-63
2022/04/17 00:40:06;;;;;;;9.97;6.10;;;5.50;99.90;;;;;;4914655;29;20199;-62
2022/04/17 00:42:33;;;;;;;10.87;6.67;;;5.40;99.90;;;;;;4939981;29;20206;-63
2022/04/17 00:45:00;;;;;;;10.40;6.67;;;5.30;99.90;;;;;;4941508;29;20686;-63
2022/04/17 00:47:27;;;;;;;8.43;5.87;;;5.30;99.90;;;;;;4931313;29;20348;-62
2022/04/17 00:49:54;;;;;;;10.30;6.47;;;5.30;99.90;;;;;;4942265;28;20227;-63
2022/04/17 00:52:21;;;;;;;10.67;6.83;;;5.30;99.90;;;;;;4941990;29;20195;-62
2022/04/17 00:54:49;;;;;;;8.80;6.33;;;5.30;99.90;;;;;;4924573;29;20667;-63
2022/04/17 00:57:17;;;;;;;10.47;6.70;;;5.40;99.90;;;;;;4923557;29;20917;-63
2022/04/17 00:59:51;;;;;;;8.43;6.57;;;5.30;99.90;;;;;;4923493;29;20713;-62
2022/04/17 01:02:18;;;;;;;8.13;6.00;;;5.40;99.90;;;;;;4914208;29;20200;-61
2022/04/17 01:04:46;;;;;;;9.43;6.87;;;5.30;99.90;;;;;;4924088;29;20207;-62
2022/04/17 01:07:14;;;;;;;10.97;6.90;;;5.30;99.90;;;;;;4943814;29;20206;-61
2022/04/17 01:09:45;;;;;;;8.20;6.33;;;5.20;99.90;;;;;;4912318;29;20195;-63
2022/04/17 01:12:13;;;;;;;8.90;6.00;;;5.20;99.90;;;;;;4943791;28;20254;-62
2022/04/17 01:14:44;;;;;;;10.60;6.50;;;5.20;99.90;;;;;;4929214;29;20203;-62
2022/04/17 01:17:12;;;;;;;8.83;6.57;;;5.10;99.90;;;;;;4932915;29;20262;-61
2022/04/17 01:19:39;;;;;;;10.67;6.90;;;5.10;99.90;;;;;;4944459;28;20219;-62
2022/04/17 01:22:13;;;;;;;9.33;6.70;;;5.10;99.90;;;;;;4956755;28;20230;-62
2022/04/17 01:27:26;;;;;;;11.53;6.83;;;5.10;99.90;;;;;;4963191;28;20199;-64
2022/04/17 01:29:53;;;;;;;9.90;6.80;;;5.10;99.90;;;;;;4946057;28;20198;-62
2022/04/17 01:32:21;;;;;;;8.70;6.70;;;5.00;99.90;;;;;;4962712;28;20591;-63
2022/04/17 01:34:52;;;;;;;8.97;7.10;;;5.00;99.90;;;;;;4953676;28;20702;-63
2022/04/17 01:37:19;;;;;;;9.87;6.53;;;5.00;99.90;;;;;;4961979;28;20752;-62
2022/04/17 01:39:46;;;;;;;9.60;7.13;;;4.90;99.90;;;;;;4963763;28;20194;-63
2022/04/17 01:42:13;;;;;;;10.17;7.03;;;4.90;99.90;;;;;;4963422;28;20194;-62
2022/04/17 01:44:41;;;;;;;10.07;7.13;;;4.90;99.90;;;;;;4947411;28;20198;-62
2022/04/17 01:47:08;;;;;;;8.63;6.70;;;4.80;99.90;;;;;;4963381;28;20207;-60
2022/04/17 01:49:36;;;;;;;10.93;7.40;;;4.70;99.90;;;;;;4962988;28;20206;-60
2022/04/17 01:52:03;;;;;;;11.63;7.63;;;4.70;99.90;;;;;;4963104;28;20210;-62
2022/04/17 01:54:32;;;;;;;11.37;7.77;;;4.70;99.90;;;;;;4945656;28;20211;-62
2022/04/17 01:56:59;;;;;;;11.40;7.83;;;4.70;99.90;;;;;;4946410;28;20225;-61
2022/04/17 01:59:26;;;;;;;9.53;7.53;;;4.60;99.90;;;;;;4964173;28;20217;-62
2022/04/17 02:01:54;;;;;;;11.20;7.40;;;4.60;99.90;;;;;;4959825;28;20202;-64
2022/04/17 02:04:23;;;;;;;9.90;7.63;;;4.60;99.90;;;;;;4945775;28;20597;-63
2022/04/17 02:06:50;;;;;;;8.67;7.13;;;4.50;1.00;;;;;;4960770;28;20293;-64
2022/04/17 02:09:18;;;;;;;9.57;6.70;;;4.50;99.90;;;;;;4951266;28;20200;-63
2022/04/17 02:11:46;;;;;;;8.83;6.83;;;4.50;99.90;;;;;;4945059;28;20202;-62
2022/04/17 02:14:13;;;;;;;10.73;7.17;;;4.50;99.90;;;;;;4952301;28;20195;-62
2022/04/17 02:16:41;;;;;;;9.70;7.47;;;4.50;1.00;;;;;;4944796;28;20202;-61
2022/04/17 02:19:11;;;;;;;11.00;7.23;;;4.50;1.00;;;;;;4961897;28;20206;-61
2022/04/17 02:21:38;;;;;;;10.10;7.13;;;4.50;99.90;;;;;;4945035;28;20262;-62
2022/04/17 02:24:06;;;;;;;11.43;7.67;;;4.40;99.90;;;;;;4944970;28;20643;-62
2022/04/17 02:26:33;;;;;;;8.97;6.70;;;4.50;99.90;;;;;;4945919;28;20585;-63
2022/04/17 02:29:00;;;;;;;9.37;7.37;;;4.40;99.90;;;;;;4930110;28;20270;-61
2022/04/17 02:31:28;;;;;;;9.93;6.83;;;4.40;1.00;;;;;;4961579;28;20198;-61
2022/04/17 02:33:57;;;;;;;11.07;7.30;;;4.40;1.00;;;;;;4964422;28;20200;-61
2022/04/17 02:36:24;;;;;;;12.03;7.17;;;4.30;1.00;;;;;;4962256;28;20669;-63
2022/04/17 02:38:53;;;;;;;9.73;7.53;;;4.30;1.00;;;;;;4959630;28;20223;-62
2022/04/17 02:41:21;;;;;;;10.57;7.40;;;4.20;1.00;;;;;;4961258;28;20569;-61
2022/04/17 02:43:48;;;;;;;11.60;8.00;;;4.20;1.00;;;;;;4961863;28;20733;-62
2022/04/17 02:47:42;;;;;;;12.27;7.10;;;4.20;1.00;;;;;;4962022;28;20290;-61
2022/04/17 02:49:02;;;;;;;9.87;7.50;;;4.20;1.00;;;;;;4962580;28;20254;-65
2022/04/17 02:51:29;;;;;;;9.30;7.00;;;4.20;1.00;;;;;;4961261;28;20223;-61
2022/04/17 02:53:56;;;;;;;15.23;7.53;;;4.20;1.00;;;;;;4944645;28;20218;-62
2022/04/17 02:56:23;;;;;;;10.30;7.43;;;4.30;1.00;;;;;;4960958;28;20217;-62
2022/04/17 02:58:52;;;;;;;9.67;7.67;;;4.30;1.00;;;;;;4949976;28;20914;-62
2022/04/17 03:06:50;;;;;;;9.43;7.40;;;3.90;1.00;;;;;;4944519;28;20273;-61
2022/04/17 03:09:18;;;;;;;11.00;7.23;;;3.90;1.00;;;;;;4932727;28;20678;-63
2022/04/17 03:11:45;;;;;;;11.63;7.97;;;3.90;1.00;;;;;;4944267;28;20685;-63
2022/04/17 03:14:13;;;;;;;13.43;8.33;;;3.90;1.00;;;;;;4951333;28;20194;-62
2022/04/17 03:16:40;;;;;;;11.60;8.03;;;3.90;1.00;;;;;;4960760;28;20391;-63
2022/04/17 03:19:10;;;;;;;11.17;7.37;;;3.80;1.00;;;;;;4961884;28;20703;-62
2022/04/17 03:21:37;;;;;;;9.70;7.70;;;3.70;1.00;;;;;;4944234;28;20288;-62
2022/04/17 03:24:04;;;;;;;12.47;8.20;;;3.60;1.00;;;;;;4960474;28;20194;-62
2022/04/17 03:26:32;;;;;;;13.57;8.60;;;3.60;1.00;;;;;;4961032;28;20572;-61
2022/04/17 03:28:59;;;;;;;10.03;7.77;;;3.70;1.00;;;;;;4960464;28;20195;-62
2022/04/17 03:31:27;;;;;;;13.13;8.30;;;3.80;1.00;;;;;;4950319;28;20279;-61
2022/04/17 03:33:54;;;;;;;13.43;8.47;;;3.70;1.00;;;;;;4943614;28;20206;-61
2022/04/17 03:36:21;;;;;;;8.67;7.17;;;3.70;1.00;;;;;;4960766;28;20207;-62
2022/04/17 03:38:48;;;;;;;10.47;8.00;;;3.60;1.00;;;;;;4959845;28;20245;-61
2022/04/17 03:41:15;;;;;;;9.87;7.63;;;3.60;1.00;;;;;;4950278;28;21063;-65
2022/04/17 03:43:42;;;;;;;11.37;8.20;;;3.50;1.00;;;;;;4943382;28;20226;-64
2022/04/17 03:46:09;;;;;;;9.40;8.13;;;3.50;1.00;;;;;;4949979;28;20199;-64
2022/04/17 03:48:36;;;;;;;10.50;8.50;;;3.60;1.00;;;;;;4951389;28;20255;-63
2022/04/17 03:51:03;;;;;;;9.93;7.93;;;3.40;1.00;;;;;;4961524;28;20229;-64
2022/04/17 03:53:30;;;;;;;11.80;8.77;;;3.40;1.00;;;;;;4960679;28;20259;-67
2022/04/17 03:55:57;;;;;;;10.87;8.67;;;3.50;1.00;;;;;;4960727;28;20214;-63
2022/04/17 03:58:24;;;;;;;11.57;8.87;;;3.50;1.00;;;;;;4960121;28;20234;-63
2022/04/17 04:00:51;;;;;;;13.73;8.30;;;3.40;1.00;;;;;;4961339;28;20649;-64
2022/04/17 04:03:18;;;;;;;11.50;8.27;;;3.40;1.00;;;;;;4944929;28;20608;-65
2022/04/17 04:05:46;;;;;;;12.60;8.57;;;3.40;1.00;;;;;;4959358;28;20314;-63
2022/04/17 04:08:13;;;;;;;16.27;9.23;;;3.30;1.00;;;;;;4942348;28;20275;-64
2022/04/17 04:10:40;;;;;;;13.47;8.10;;;3.30;1.00;;;;;;4959592;28;20654;-62
2022/04/17 04:13:07;;;;;;;11.53;8.70;;;3.30;1.00;;;;;;4942434;28;20306;-65
2022/04/17 04:15:34;;;;;;;11.00;8.87;;;3.30;1.00;;;;;;4951012;28;20713;-63
2022/04/17 04:18:01;;;;;;;11.03;8.77;;;3.20;1.00;;;;;;4959702;28;20296;-64
2022/04/17 04:20:28;;;;;;;10.20;8.67;;;3.20;1.00;;;;;;4951047;28;20214;-63
2022/04/17 04:22:55;;;;;;;11.10;8.63;;;3.10;1.00;;;;;;4941391;28;20316;-63
2022/04/17 04:25:22;;;;;;;12.53;8.63;;;3.00;1.00;;;;;;4922687;29;20206;-62
2022/04/17 04:30:38;;;;;;;17.40;11.00;;;3.00;1.00;;;;;;4930405;29;20269;-62
2022/04/17 04:33:05;;;;;;;14.33;9.93;;;3.00;1.00;;;;;;4908239;29;20219;-63
2022/04/17 04:35:33;;;;;;;12.90;8.60;;;3.00;1.00;;;;;;4907755;29;21095;-63
2022/04/17 04:38:01;;;;;;;12.37;8.97;;;3.00;1.00;;;;;;4923100;29;20721;-63
2022/04/17 04:40:32;;;;;;;16.60;10.93;;;3.00;1.00;;;;;;4940546;28;20703;-62
2022/04/17 04:43:00;;;;;;;12.63;9.33;;;3.00;17.20;;;;;;4923906;29;20738;-62
2022/04/17 04:48:13;;;;;;;12.20;9.03;;;3.00;1.00;;;;;;4940159;29;20203;-62
2022/04/17 04:50:41;;;;;;;17.67;9.70;;;3.10;1.00;;;;;;4940514;29;20199;-63
2022/04/17 04:53:10;;;;;;;10.83;8.40;;;3.10;1.00;;;;;;4940302;29;20666;-63
2022/04/17 04:55:38;;;;;;;11.47;9.37;;;3.00;1.00;;;;;;4930991;29;20259;-63
2022/04/17 04:58:05;;;;;;;14.10;9.23;;;3.00;7.20;;;;;;4941216;29;20251;-62
2022/04/17 05:00:32;;;;;;;12.13;8.97;;;3.00;18.70;;;;;;4925035;29;20208;-62
2022/04/17 05:02:59;;;;;;;12.53;9.70;;;3.00;2.30;;;;;;4922965;29;20199;-62
2022/04/17 05:05:26;;;;;;;11.80;8.83;;;3.10;9.90;;;;;;4914650;29;20949;-62
2022/04/17 05:07:53;;;;;;;12.77;9.20;;;3.20;1.00;;;;;;4922890;29;20246;-62
2022/04/17 05:10:20;;;;;;;13.97;8.73;;;3.20;1.00;;;;;;4931977;28;20210;-62
2022/04/17 05:12:47;;;;;;;10.83;8.33;;;3.40;1.00;;;;;;4923582;29;20746;-63
2022/04/17 05:15:15;;;;;;;18.97;9.10;;;3.40;1.00;;;;;;4908180;29;20926;-62
2022/04/17 05:17:42;;;;;;;11.87;8.40;;;3.50;1.00;;;;;;4939728;29;20246;-61
2022/04/17 05:20:11;;;;;;;10.97;8.30;;;3.70;1.00;;;;;;4941507;29;20310;-62
2022/04/17 05:22:38;;;;;;;12.57;8.83;;;3.70;1.00;;;;;;4944445;28;20330;-62
2022/04/17 05:25:11;;;;;;;16.60;9.33;;;3.80;1.00;;;;;;4959606;28;20742;-63
2022/04/17 05:27:39;;;;;;;12.50;9.57;;;3.90;1.00;;;;;;4959285;28;20203;-63
2022/04/17 05:30:08;;;;;;;12.83;8.83;;;4.00;1.00;;;;;;4948323;28;20246;-62
2022/04/17 05:32:35;;;;;;;13.20;8.83;;;4.10;1.00;;;;;;4958445;28;20357;-63
2022/04/17 05:35:03;;;;;;;14.77;9.57;;;4.20;1.00;;;;;;4949067;28;20294;-62
2022/04/17 05:37:30;;;;;;;10.90;8.57;;;4.20;1.00;;;;;;4941497;28;20217;-63
2022/04/17 05:39:57;;;;;;;14.00;9.07;;;4.30;1.00;;;;;;4959337;28;20190;-62
2022/04/17 05:42:24;;;;;;;11.73;9.17;;;4.40;1.00;;;;;;4961509;28;20199;-62
2022/04/17 05:44:52;;;;;;;11.93;8.50;;;4.60;1.00;;;;;;4958462;28;20566;-62
2022/04/17 05:47:19;;;;;;;11.07;8.90;;;4.70;1.00;;;;;;4949350;28;20998;-61
2022/04/17 05:49:46;;;;;;;12.80;9.17;;;4.80;1.00;;;;;;4942984;28;20207;-63
2022/04/17 05:52:13;;;;;;;11.33;8.27;;;4.80;1.00;;;;;;4941338;28;20332;-62
2022/04/17 05:54:43;;;;;;;11.17;9.00;;;5.10;1.00;;;;;;4952235;28;20270;-62
2022/04/17 05:57:10;;;;;;;11.47;8.27;;;6.10;99.90;;;;;;4944761;28;20199;-62
2022/04/17 05:59:39;;;;;;;11.33;7.93;;;9.30;1.00;;;;;;4962532;28;20309;-63
2022/04/17 06:02:08;;;;;;;10.93;7.97;;;11.50;1.00;;;;;;4953261;28;20260;-64
2022/04/17 06:04:38;;;;;;;8.90;7.03;;;13.30;1.00;;;;;;4951649;28;20202;-64
2022/04/17 06:07:05;;;;;;;8.93;7.67;;;15.20;99.90;;;;;;4944573;28;20793;-63
2022/04/17 06:09:31;;;;;;;11.40;6.63;;;15.90;99.90;;;;;;4961867;28;20613;-63
2022/04/17 06:11:58;;;;;;;8.07;6.40;;;17.70;99.90;;;;;;4944970;28;20206;-63
2022/04/17 06:14:25;;;;;;;13.90;7.05;;;17.40;99.90;;;;;;4962242;28;20233;-64
2022/04/17 06:16:55;;;;;;;7.88;6.65;;;18.60;99.90;;;;;;4945999;28;20241;-63
2022/04/17 06:19:22;;;;;;;7.90;6.72;;;18.90;99.90;;;;;;4962617;28;20698;-63
2022/04/17 06:21:49;;;;;;;8.80;6.70;;;18.60;99.90;;;;;;4932629;28;20230;-62
2022/04/17 06:24:16;;;;;;;7.97;6.85;;;19.40;99.90;;;;;;4952240;28;20257;-63
2022/04/17 06:26:43;;;;;;;8.90;6.47;;;20.10;99.90;;;;;;4962670;28;20199;-64
2022/04/17 06:29:10;;;;;;;8.80;7.03;;;21.40;99.90;;;;;;4952828;28;20202;-64
2022/04/17 06:31:43;;;;;;;8.85;6.32;;;22.20;99.90;;;;;;4962145;28;20198;-63
2022/04/17 06:34:10;;;;;;;7.40;6.55;;;22.70;99.90;;;;;;4960816;28;20708;-64
2022/04/17 06:36:37;;;;;;;9.30;7.03;;;23.00;99.90;;;;;;4960723;28;20207;-64
2022/04/17 06:39:04;;;;;;;9.32;6.20;;;22.90;99.90;;;;;;4961023;28;20206;-63
2022/04/17 06:41:31;;;;;;;8.45;5.93;;;23.60;99.90;;;;;;4961511;28;20278;-63
2022/04/17 06:43:58;;;;;;;7.22;5.88;;;22.30;99.90;;;;;;4944000;28;20254;-64
2022/04/17 06:46:25;;;;;;;8.05;6.75;;;22.30;99.90;;;;;;4945390;28;20195;-63
2022/04/17 06:48:53;;;;;;;8.15;6.78;;;21.90;99.90;;;;;;4944011;28;20211;-63
2022/04/17 06:51:24;;;;;;;7.38;6.15;;;23.10;99.90;;;;;;4961839;28;20792;-63
2022/04/17 06:53:51;;;;;;;7.50;6.35;;;24.00;99.90;;;;;;4961805;28;20203;-65
2022/04/17 06:56:18;;;;;;;7.03;6.13;;;23.40;99.90;;;;;;4960837;28;20210;-64
2022/04/17 06:58:46;;;;;;;6.78;5.75;;;24.00;99.90;;;;;;4944184;28;20236;-65
2022/04/17 07:01:14;;;;;;;7.70;5.88;;;24.00;99.90;;;;;;4951034;28;20229;-64
2022/04/17 07:03:42;;;;;;;7.28;6.13;;;24.40;99.90;;;;;;4948416;28;20209;-64
2022/04/17 07:06:09;;;;;;;7.38;5.90;;;24.40;99.90;;;;;;4927208;28;20245;-65
2022/04/17 07:08:36;;;;;;;6.57;5.63;;;25.80;99.90;;;;;;4942965;28;20237;-64
2022/04/17 07:11:04;;;;;;;7.50;6.32;;;27.00;99.90;;;;;;4960846;28;20198;-65
2022/04/17 07:13:31;;;;;;;6.97;5.95;;;26.70;99.90;;;;;;4945199;28;20254;-63
2022/04/17 07:15:58;;;;;;;6.82;5.82;;;27.60;99.90;;;;;;4958690;28;20310;-62
2022/04/17 07:18:25;;;;;;;7.70;5.93;;;27.70;99.90;;;;;;4942381;28;20682;-62
2022/04/17 07:20:52;;;;;;;6.05;5.45;;;28.30;99.90;;;;;;4956204;28;20314;-62
2022/04/17 07:23:19;;;;;;;6.03;4.78;;;28.70;99.90;;;;;;4921770;28;20199;-63
2022/04/17 07:25:46;;;;;;;5.80;4.75;;;27.00;99.90;;;;;;4939316;28;20259;-66
2022/04/17 07:28:14;;;;;;;7.30;4.90;;;27.70;99.90;;;;;;4924771;29;20887;-62
2022/04/17 07:30:43;;;;;;;6.50;4.57;;;26.30;99.90;;;;;;4938424;28;20666;-63
2022/04/17 07:33:10;;;;;;;6.15;5.07;;;25.80;99.90;;;;;;4938972;28;20258;-62
2022/04/17 07:35:37;;;;;;;6.03;4.07;;;26.90;99.90;;;;;;4939475;28;20663;-61
2022/04/17 07:38:05;;;;;;;5.72;4.28;;;26.70;99.90;;;;;;4939087;28;20196;-61
2022/04/17 07:40:33;;;;;;;4.70;4.07;;;27.80;99.90;;;;;;4942125;28;20203;-61
2022/04/17 07:43:05;;;;;;;6.47;4.10;;;28.20;99.90;;;;;;4922940;29;20199;-59
2022/04/17 07:45:33;;;;;;;4.43;3.78;;;29.30;99.90;;;;;;4938393;28;20191;-59
2022/04/17 07:48:01;;;;;;;3.83;3.42;;;28.10;99.90;;;;;;4922410;29;20205;-57
2022/04/17 07:50:31;;;;;;;4.28;3.88;;;25.70;99.90;;;;;;4938804;28;21070;-59
2022/04/17 07:52:59;;;;;;;4.63;3.90;;;18.80;99.90;;;;;;4939101;29;20684;-57
2022/04/17 07:55:26;;;;;;;5.00;4.00;;;23.60;99.90;;;;;;4937280;28;20255;-57
2022/04/17 08:00:24;;;;;;;5.05;3.95;;;27.90;99.90;;;;;;4935505;28;20302;-58
2022/04/17 08:03:34;;;;;;;4.70;4.20;;;29.40;99.90;;;;;;4940858;29;20192;-58
2022/04/17 08:06:05;;;;;;;6.13;3.80;;;28.60;99.90;;;;;;4937910;28;20686;-58
2022/04/17 08:08:33;;;;;;;3.38;3.08;;;25.80;99.90;;;;;;4939385;28;20308;-57
2022/04/17 08:11:00;;;;;;;4.10;3.70;;;24.40;99.90;;;;;;4936471;28;20235;-57
2022/04/17 08:13:27;;;;;;;5.55;3.90;;;23.10;99.90;;;;;;4940778;28;20234;-58
2022/04/17 08:15:54;;;;;;;4.35;3.30;;;25.70;99.90;;;;;;4925663;29;20227;-57
2022/04/17 08:18:21;;;;;;;5.65;4.07;;;27.00;99.90;;;;;;4938687;29;20250;-57
2022/04/17 08:20:48;;;;;;;4.53;3.33;;;28.00;99.90;;;;;;4940221;28;20710;-58
2022/04/17 08:23:16;;;;;;;3.28;2.92;;;29.20;99.90;;;;;;4957961;28;20194;-57
2022/04/17 08:25:43;;;;;;;5.82;3.10;;;27.60;99.90;;;;;;4957108;28;20242;-57
2022/04/17 08:28:10;;;;;;;3.67;2.97;;;28.20;99.90;;;;;;4958834;28;20229;-60
2022/04/17 08:30:37;;;;;;;4.35;3.50;;;29.70;99.90;;;;;;4961613;28;20319;-58
2022/04/17 08:33:07;;;;;;;6.15;3.67;;;29.60;99.90;;;;;;4957946;28;20221;-59
2022/04/17 08:35:34;;;;;;;3.95;3.30;;;27.10;99.90;;;;;;4960901;28;20696;-59
2022/04/17 08:38:03;;;;;;;5.13;3.72;;;22.00;99.90;;;;;;4959374;28;20206;-58
2022/04/17 08:40:30;;;;;;;4.68;3.30;;;23.30;99.90;;;;;;4958450;28;20218;-58
2022/04/17 08:42:59;;;;;;;4.43;3.60;;;27.20;99.90;;;;;;4959461;28;20364;-58
2022/04/17 08:45:26;;;;;;;4.25;3.22;;;26.70;99.90;;;;;;4959976;28;20710;-58
2022/04/17 08:47:55;;;;;;;5.68;3.20;;;27.80;99.90;;;;;;4956652;28;20193;-58
2022/04/17 08:50:22;;;;;;;4.22;3.28;;;25.70;99.90;;;;;;4958186;28;20293;-57
2022/04/17 08:52:51;;;;;;;4.65;3.28;;;28.60;99.90;;;;;;4958737;28;20226;-58
2022/04/17 08:55:19;;;;;;;4.80;3.30;;;29.00;99.90;;;;;;4940208;28;20748;-58
2022/04/17 08:57:46;;;;;;;4.45;3.30;;;28.50;99.90;;;;;;4960088;28;20202;-59
2022/04/17 09:00:17;;;;;;;4.68;3.28;;;29.00;99.90;;;;;;4947927;28;20238;-58
2022/04/17 09:02:46;;;;;;;8.25;3.50;;;28.30;99.90;;;;;;4957845;28;20658;-57
2022/04/17 09:05:16;;;;;;;4.03;3.30;;;28.50;99.90;;;;;;4946644;28;20223;-58
2022/04/17 09:07:50;;;;;;;3.90;3.42;;;31.30;99.90;;;;;;4952502;28;20249;-58
2022/04/17 09:10:29;;;;;;;5.30;3.42;;;33.60;99.90;;;;;;4955584;28;20270;-58
2022/04/17 09:13:00;;;;;;;3.17;2.88;;;32.00;99.90;;;;;;4954929;28;20222;-58
2022/04/17 09:15:30;;;;;;;3.97;3.40;;;29.20;99.90;;;;;;4941131;28;20206;-59
2022/04/17 09:17:58;;;;;;;5.13;3.53;;;30.70;99.90;;;;;;4957217;28;20259;-58
2022/04/17 09:20:27;;;;;;;3.80;3.30;;;29.70;99.90;;;;;;4956789;28;20261;-57
2022/04/17 09:22:57;;;;;;;3.88;3.50;;;29.90;99.90;;;;;;4939487;28;20240;-59
2022/04/17 09:25:27;;;;;;;5.88;3.90;;;31.60;99.90;;;;;;4924443;29;20510;-58
2022/04/17 09:28:05;;;;;;;6.00;4.47;;;31.40;99.90;;;;;;4940224;28;20203;-59
2022/04/17 09:30:33;;;;;;;4.80;4.05;;;31.10;99.90;;;;;;4925188;29;20235;-58
2022/04/17 09:33:10;;;;;;;4.55;3.42;;;32.20;99.90;;;;;;4944143;28;20198;-58
2022/04/17 09:35:37;;;;;;;3.92;3.53;;;32.10;99.90;;;;;;4936369;28;20289;-58
2022/04/17 09:38:06;;;;;;;4.40;3.47;;;29.90;99.90;;;;;;4938112;28;20675;-58
2022/04/17 09:40:36;;;;;;;4.60;3.95;;;30.80;99.90;;;;;;4941488;28;20353;-58
2022/04/17 09:43:11;;;;;;;4.05;3.58;;;26.00;99.90;;;;;;4932131;28;20260;-57
2022/04/17 09:46:06;;;;;;;5.63;3.45;;;24.70;99.90;;;;;;4934196;29;20274;-57
2022/04/17 09:48:35;;;;;;;4.78;3.55;;;26.30;99.90;;;;;;4938975;28;20729;-57
2022/04/17 09:51:25;;;;;;;4.88;3.60;;;27.50;99.90;;;;;;4935528;28;20278;-60
2022/04/17 09:54:01;;;;;;;5.30;3.83;;;29.60;99.90;;;;;;4941937;28;20274;-60
2022/04/17 09:56:32;;;;;;;5.80;3.50;;;30.60;99.90;;;;;;4926306;29;20670;-62
2022/04/17 09:59:01;;;;;;;5.03;3.58;;;29.20;99.90;;;;;;4934757;28;20700;-61
2022/04/17 10:01:28;;;;;;;7.18;3.85;;;26.60;99.90;;;;;;4933539;28;20235;-63
2022/04/17 10:03:58;;;;;;;5.18;4.05;;;26.40;99.90;;;;;;4909075;29;20206;-62
2022/04/17 10:06:25;;;;;;;5.97;4.00;;;26.50;99.90;;;;;;4942449;28;20199;-60
2022/04/17 10:08:53;;;;;;;3.75;3.42;;;27.40;99.90;;;;;;4923276;28;20209;-61
2022/04/17 10:11:20;;;;;;;4.63;3.80;;;28.50;99.90;;;;;;4923322;29;20199;-61
2022/04/17 10:13:48;;;;;;;6.80;4.03;;;28.00;99.90;;;;;;4942615;29;21098;-61
2022/04/17 10:16:20;;;;;;;5.50;3.95;;;27.30;99.90;;;;;;4943662;28;20661;-61
2022/04/17 10:18:49;;;;;;;6.18;4.00;;;28.10;99.90;;;;;;4943871;28;20561;-61
2022/04/17 10:21:21;;;;;;;5.65;3.67;;;27.20;99.90;;;;;;4924574;29;20258;-62
2022/04/17 10:23:53;;;;;;;5.43;4.00;;;25.70;99.90;;;;;;4941392;29;20202;-63
2022/04/17 10:26:21;;;;;;;5.22;3.90;;;24.20;99.90;;;;;;4909915;29;20231;-63
2022/04/17 10:28:54;;;;;;;4.25;3.75;;;23.20;99.90;;;;;;4935786;28;20297;-62
2022/04/17 10:31:21;;;;;;;4.45;3.83;;;25.90;99.90;;;;;;4942160;29;20242;-62
2022/04/17 10:34:32;;;;;;;4.50;3.70;;;26.00;99.90;;;;;;4942297;29;20223;-62
2022/04/17 10:37:26;;;;;;;4.68;4.03;;;24.30;99.90;;;;;;4939870;29;20279;-61
2022/04/17 10:39:57;;;;;;;5.63;4.00;;;23.10;99.90;;;;;;4937946;28;20498;-61
2022/04/17 10:42:35;;;;;;;4.70;3.97;;;25.00;99.90;;;;;;4938492;28;20681;-61
2022/04/17 10:45:04;;;;;;;7.13;4.25;;;24.80;99.90;;;;;;4926521;28;20398;-61
2022/04/17 10:47:31;;;;;;;8.10;4.70;;;25.50;99.90;;;;;;4940555;29;20723;-62
2022/04/17 10:50:00;;;;;;;5.63;4.40;;;26.60;99.90;;;;;;4943318;29;20262;-62
2022/04/17 10:52:31;;;;;;;4.90;4.28;;;25.00;99.90;;;;;;4942623;29;20192;-62
2022/04/17 10:55:10;;;;;;;6.90;4.80;;;24.70;99.90;;;;;;4940499;29;20624;-62
2022/04/17 10:57:50;;;;;;;6.63;4.88;;;22.10;99.90;;;;;;4941316;29;20690;-62
2022/04/17 11:00:36;;;;;;;6.07;4.82;;;24.20;99.90;;;;;;4939829;28;20307;-61
2022/04/17 11:03:23;;;;;;;5.70;4.03;;;23.80;99.90;;;;;;4939927;28;22381;-61
2022/04/17 11:08:47;;;;;;;4.47;4.00;;;23.30;99.90;;;;;;4940923;28;20278;-62
2022/04/17 11:11:15;;;;;;;4.35;3.90;;;23.90;99.90;;;;;;4941394;28;20682;-61
2022/04/17 11:14:08;;;;;;;6.18;3.88;;;25.40;99.90;;;;;;4943609;28;20747;-65
2022/04/17 11:16:58;;;;;;;4.32;3.90;;;25.00;99.90;;;;;;4940605;28;20697;-60
2022/04/17 11:19:34;;;;;;;4.53;3.58;;;23.70;99.90;;;;;;4926006;28;20302;-62
2022/04/17 11:22:04;;;;;;;4.38;3.22;;;23.70;99.90;;;;;;4941796;28;20589;-61
2022/04/17 11:24:56;;;;;;;4.10;3.60;;;23.50;99.90;;;;;;4942481;28;20207;-61
2022/04/17 11:27:32;;;;;;;5.43;3.28;;;23.40;99.90;;;;;;4941012;28;20296;-62
2022/04/17 11:29:59;;;;;;;4.68;3.05;;;22.60;99.90;;;;;;4942529;28;20261;-60
2022/04/17 11:32:29;;;;;;;4.32;3.13;;;22.10;99.90;;;;;;4940125;28;20280;-61
2022/04/17 11:35:00;;;;;;;4.38;3.10;;;22.10;99.90;;;;;;4941271;28;20638;-60
2022/04/17 11:37:28;;;;;;;4.70;2.78;;;22.00;99.90;;;;;;4938959;28;20223;-61
2022/04/17 11:40:14;;;;;;;3.80;2.92;;;22.30;99.90;;;;;;4924985;28;20215;-60
2022/04/17 11:42:47;;;;;;;4.43;2.90;;;21.90;99.90;;;;;;4935311;28;20199;-61
2022/04/17 11:45:17;;;;;;;3.25;2.63;;;22.00;99.90;;;;;;4938848;28;20623;-61
2022/04/17 11:47:46;;;;;;;3.25;2.80;;;21.60;99.90;;;;;;4932396;28;20665;-61
2022/04/17 11:50:28;;;;;;;2.97;2.20;;;22.70;99.90;;;;;;4943920;28;20197;-61
2022/04/17 11:53:01;;;;;;;3.70;2.50;;;23.00;99.90;;;;;;4943478;28;20202;-61
2022/04/17 11:55:36;;;;;;;4.95;2.47;;;22.20;99.90;;;;;;4925430;28;20199;-60
2022/04/17 11:58:08;;;;;;;6.68;2.67;;;22.60;99.90;;;;;;4941170;28;20199;-60
2022/04/17 12:00:39;;;;;;;3.17;2.35;;;22.10;99.90;;;;;;4942187;28;20210;-61
2022/04/17 12:03:07;;;;;;;5.13;3.03;;;22.00;99.90;;;;;;4959853;28;20237;-61
2022/04/17 12:05:36;;;;;;;3.47;3.13;;;22.10;99.90;;;;;;4935420;28;20199;-60
2022/04/17 12:08:11;;;;;;;3.92;2.92;;;21.00;99.90;;;;;;4938106;28;20570;-60
2022/04/17 12:10:43;;;;;;;4.03;2.72;;;20.90;99.90;;;;;;4938360;28;20359;-60
2022/04/17 12:13:21;;;;;;;4.63;2.60;;;20.90;99.90;;;;;;4934725;28;20691;-60
2022/04/17 12:15:59;;;;;;;4.88;3.08;;;20.80;99.90;;;;;;4941056;28;20666;-61
2022/04/17 12:18:26;;;;;;;4.20;3.20;;;20.90;99.90;;;;;;4942498;28;20203;-61
2022/04/17 12:20:54;;;;;;;3.80;2.92;;;20.70;99.90;;;;;;4934777;28;20306;-62
2022/04/17 12:23:25;;;;;;;5.78;3.45;;;21.20;99.90;;;;;;4944820;28;20282;-61
2022/04/17 12:25:53;;;;;;;4.80;2.92;;;21.00;99.90;;;;;;4943441;28;20720;-61
2022/04/17 12:28:21;;;;;;;4.78;3.15;;;20.80;99.90;;;;;;4960439;28;20229;-61
2022/04/17 12:30:48;;;;;;;4.55;2.88;;;20.10;99.90;;;;;;4944173;28;20437;-60
2022/04/17 12:33:27;;;;;;;5.85;2.80;;;19.90;99.90;;;;;;4940995;28;20306;-61
2022/04/17 12:36:04;;;;;;;3.95;3.00;;;20.20;99.90;;;;;;4959385;28;20202;-58
2022/04/17 12:38:31;;;;;;;3.58;2.65;;;19.80;99.90;;;;;;4957284;28;20277;-58
2022/04/17 12:40:58;;;;;;;3.92;2.67;;;19.70;99.90;;;;;;4958570;28;20305;-58
2022/04/17 12:43:30;;;;;;;3.10;2.80;;;19.70;99.90;;;;;;4960651;28;20226;-58
2022/04/17 12:46:04;;;;;;;3.42;2.78;;;19.50;99.90;;;;;;4949450;28;20659;-58
2022/04/17 12:48:34;;;;;;;4.68;3.03;;;19.30;99.90;;;;;;4941841;28;20205;-59
2022/04/17 12:51:04;;;;;;;3.28;2.60;;;19.70;99.90;;;;;;4941717;28;20249;-59
2022/04/17 12:53:50;;;;;;;3.50;2.75;;;18.90;99.90;;;;;;4956256;28;20301;-59
2022/04/17 12:56:18;;;;;;;3.92;3.33;;;18.70;99.90;;;;;;4958020;28;20701;-58
2022/04/17 12:58:56;;;;;;;4.43;2.80;;;19.00;99.90;;;;;;4955030;28;20278;-58
2022/04/17 13:01:29;;;;;;;3.15;2.28;;;18.80;99.90;;;;;;4959980;28;20233;-58
2022/04/17 13:04:39;;;;;;;4.43;2.47;;;18.50;99.90;;;;;;4961390;28;20200;-58
2022/04/17 13:07:10;;;;;;;3.85;2.50;;;18.10;99.90;;;;;;4930707;28;20206;-59
2022/04/17 13:09:37;;;;;;;4.13;3.00;;;18.20;99.90;;;;;;4962329;28;20194;-59
2022/04/17 13:12:04;;;;;;;3.40;2.85;;;18.50;99.90;;;;;;4962440;28;20199;-58
2022/04/17 13:14:31;;;;;;;3.65;2.90;;;18.50;99.90;;;;;;4964669;28;20222;-57
2022/04/17 13:17:01;;;;;;;6.20;3.35;;;18.10;99.90;;;;;;4961800;28;20198;-58
2022/04/17 13:19:30;;;;;;;3.45;3.00;;;17.90;99.90;;;;;;4960115;28;20222;-58
2022/04/17 13:21:58;;;;;;;4.32;2.80;;;17.90;99.90;;;;;;4934379;28;20289;-58